createdAt,value
2016-08-19T00:00:14.006Z,-83
2016-08-19T00:01:14.796Z,-83
2016-08-19T00:02:13.719Z,-83
2016-08-19T00:03:15.370Z,-83
2016-08-19T00:04:13.881Z,-83
2016-08-19T00:05:14.111Z,-83
2016-08-19T00:06:13.905Z,-83
2016-08-19T00:07:13.926Z,-83
2016-08-19T00:08:14.052Z,-83
2016-08-19T00:09:13.901Z,-83
2016-08-19T00:10:15.455Z,-83
2016-08-19T00:11:14.125Z,-83
2016-08-19T00:12:14.101Z,-83
2016-08-19T00:13:14.258Z,-83
2016-08-19T00:14:14.020Z,-83
2016-08-19T00:15:13.848Z,-83
2016-08-19T00:16:14.410Z,-83
2016-08-19T00:17:13.888Z,-83
2016-08-19T00:18:15.012Z,-83
2016-08-19T00:19:14.734Z,-83
2016-08-19T00:20:14.149Z,-83
2016-08-19T00:21:14.742Z,-83
2016-08-19T00:22:14.976Z,-83
2016-08-19T00:23:13.958Z,-83
2016-08-19T00:24:14.292Z,-83
2016-08-19T00:25:15.001Z,-83
2016-08-19T00:26:13.903Z,-83
2016-08-19T00:27:14.271Z,-83
2016-08-19T00:28:14.103Z,-83
2016-08-19T00:29:14.025Z,-83
2016-08-19T00:30:17.140Z,-83
2016-08-19T00:31:14.788Z,-83
2016-08-19T00:32:14.107Z,-83
2016-08-19T00:33:14.278Z,-83
2016-08-19T00:34:14.410Z,-83
2016-08-19T00:35:14.114Z,-82
2016-08-19T00:36:15.783Z,-83
2016-08-19T00:37:14.350Z,-83
2016-08-19T00:38:14.377Z,-82
2016-08-19T00:39:14.174Z,-83
2016-08-19T00:40:14.514Z,-83
2016-08-19T00:41:15.130Z,-83
2016-08-19T00:42:14.741Z,-83
2016-08-19T00:43:14.223Z,-82
2016-08-19T00:44:14.929Z,-83
2016-08-19T00:45:14.197Z,-83
2016-08-19T00:46:14.506Z,-83
2016-08-19T00:47:14.397Z,-83
2016-08-19T00:48:14.181Z,-83
2016-08-19T00:49:14.132Z,-83
2016-08-19T00:50:14.956Z,-83
2016-08-19T00:51:14.082Z,-83
2016-08-19T00:52:15.075Z,-83
2016-08-19T00:53:14.922Z,-83
2016-08-19T00:54:14.137Z,-83
2016-08-19T00:55:14.413Z,-83
2016-08-19T00:56:14.506Z,-83
2016-08-19T00:57:14.146Z,-82
2016-08-19T00:58:15.313Z,-83
2016-08-19T00:59:14.630Z,-83
2016-08-19T01:00:14.653Z,-83
2016-08-19T01:01:14.460Z,-83
2016-08-19T01:02:14.026Z,-83
2016-08-19T01:03:14.433Z,-83
2016-08-19T01:04:14.571Z,-83
2016-08-19T01:05:14.283Z,-83
2016-08-19T01:06:14.667Z,-83
2016-08-19T01:07:14.161Z,-83
2016-08-19T01:08:14.560Z,-83
2016-08-19T01:09:16.150Z,-83
2016-08-19T01:10:14.280Z,-83
2016-08-19T01:11:14.549Z,-83
2016-08-19T01:12:14.379Z,-83
2016-08-19T01:13:14.387Z,-82
2016-08-19T01:14:14.275Z,-83
2016-08-19T01:15:14.409Z,-83
2016-08-19T01:16:14.266Z,-83
2016-08-19T01:17:14.080Z,-83
2016-08-19T01:18:14.357Z,-83
2016-08-19T01:19:14.585Z,-82
2016-08-19T01:20:14.250Z,-83
2016-08-19T01:21:14.518Z,-83
2016-08-19T01:22:15.201Z,-82
2016-08-19T01:23:15.099Z,-83
2016-08-19T01:24:14.427Z,-82
2016-08-19T01:25:14.632Z,-83
2016-08-19T01:26:14.404Z,-82
2016-08-19T01:27:14.623Z,-83
2016-08-19T01:28:14.372Z,-83
2016-08-19T01:29:14.999Z,-83
2016-08-19T01:30:14.379Z,-82
2016-08-19T01:31:14.382Z,-83
2016-08-19T01:32:14.403Z,-83
2016-08-19T01:33:15.042Z,-83
2016-08-19T01:34:16.544Z,-83
2016-08-19T01:35:14.424Z,-82
2016-08-19T01:36:14.452Z,-83
2016-08-19T01:37:15.138Z,-82
2016-08-19T01:38:14.556Z,-83
2016-08-19T01:39:15.493Z,-82
2016-08-19T01:40:14.694Z,-83
2016-08-19T01:41:14.476Z,-83
2016-08-19T01:42:14.581Z,-84
2016-08-19T01:43:14.494Z,-82
2016-08-19T01:44:14.279Z,-83
2016-08-19T01:45:14.619Z,-83
2016-08-19T01:46:15.371Z,-83
2016-08-19T01:47:14.300Z,-82
2016-08-19T01:48:14.581Z,-83
2016-08-19T01:49:14.396Z,-83
2016-08-19T01:50:16.237Z,-83
2016-08-19T01:51:14.617Z,-83
2016-08-19T01:52:14.478Z,-83
2016-08-19T01:53:14.560Z,-83
2016-08-19T01:54:14.423Z,-82
2016-08-19T01:55:14.770Z,-83
2016-08-19T01:56:16.281Z,-83
2016-08-19T01:57:15.266Z,-83
2016-08-19T01:58:14.696Z,-83
2016-08-19T01:59:15.185Z,-83
2016-08-19T02:00:14.446Z,-83
2016-08-19T02:01:15.853Z,-83
2016-08-19T02:02:14.978Z,-83
2016-08-19T02:03:15.277Z,-82
2016-08-19T02:04:14.671Z,-83
2016-08-19T02:05:14.703Z,-83
2016-08-19T02:06:14.601Z,-82
2016-08-19T02:07:14.445Z,-82
2016-08-19T02:08:14.887Z,-82
2016-08-19T02:09:14.571Z,-82
2016-08-19T02:10:14.181Z,-82
2016-08-19T02:11:14.456Z,-83
2016-08-19T02:12:14.480Z,-83
2016-08-19T02:13:14.785Z,-83
2016-08-19T02:14:14.285Z,-83
2016-08-19T02:15:14.803Z,-83
2016-08-19T02:16:14.705Z,-83
2016-08-19T02:17:14.403Z,-83
2016-08-19T02:18:14.611Z,-82
2016-08-19T02:19:14.907Z,-83
2016-08-19T02:20:14.510Z,-82
2016-08-19T02:21:14.756Z,-83
2016-08-19T02:22:14.632Z,-83
2016-08-19T02:23:15.010Z,-83
2016-08-19T02:24:15.542Z,-83
2016-08-19T02:25:15.437Z,-83
2016-08-19T02:26:14.391Z,-83
2016-08-19T02:27:14.826Z,-83
2016-08-19T02:28:14.693Z,-83
2016-08-19T02:29:14.554Z,-82
2016-08-19T02:30:14.860Z,-83
2016-08-19T02:31:14.699Z,-83
2016-08-19T02:32:15.384Z,-83
2016-08-19T02:33:16.090Z,-83
2016-08-19T02:34:14.469Z,-83
2016-08-19T02:35:14.746Z,-82
2016-08-19T02:36:15.194Z,-83
2016-08-19T02:37:16.913Z,-83
2016-08-19T02:38:16.402Z,-82
2016-08-19T02:39:14.735Z,-83
2016-08-19T02:40:14.870Z,-83
2016-08-19T02:41:14.580Z,-83
2016-08-19T02:42:15.564Z,-83
2016-08-19T02:43:14.552Z,-82
2016-08-19T02:44:14.698Z,-83
2016-08-19T02:45:14.773Z,-82
2016-08-19T02:46:15.246Z,-82
2016-08-19T02:47:14.533Z,-82
2016-08-19T02:48:15.311Z,-82
2016-08-19T02:49:14.901Z,-82
2016-08-19T02:50:14.771Z,-83
2016-08-19T02:51:15.553Z,-82
2016-08-19T02:52:14.629Z,-82
2016-08-19T02:53:14.511Z,-82
2016-08-19T02:54:15.283Z,-83
2016-08-19T02:55:14.705Z,-82
2016-08-19T02:56:14.468Z,-83
2016-08-19T02:57:15.455Z,-83
2016-08-19T02:58:15.465Z,-82
2016-08-19T02:59:14.678Z,-82
2016-08-19T03:00:14.662Z,-82
2016-08-19T03:01:14.563Z,-83
2016-08-19T03:02:15.015Z,-82
2016-08-19T03:03:15.393Z,-82
2016-08-19T03:04:14.673Z,-83
2016-08-19T03:05:15.289Z,-82
2016-08-19T03:06:14.906Z,-82
2016-08-19T03:07:14.480Z,-82
2016-08-19T03:08:14.752Z,-83
2016-08-19T03:09:14.702Z,-82
2016-08-19T03:10:14.631Z,-83
2016-08-19T03:11:14.823Z,-83
2016-08-19T03:12:14.762Z,-82
2016-08-19T03:13:16.264Z,-82
2016-08-19T03:14:14.812Z,-83
2016-08-19T03:15:14.649Z,-82
2016-08-19T03:16:15.377Z,-82
2016-08-19T03:17:16.528Z,-83
2016-08-19T03:18:15.450Z,-82
2016-08-19T03:19:14.559Z,-82
2016-08-19T03:20:15.531Z,-82
2016-08-19T03:21:15.376Z,-82
2016-08-19T03:22:14.546Z,-82
2016-08-19T03:23:14.560Z,-82
2016-08-19T03:24:14.673Z,-83
2016-08-19T03:25:14.515Z,-83
2016-08-19T03:26:14.807Z,-82
2016-08-19T03:27:14.577Z,-83
2016-08-19T03:28:15.379Z,-82
2016-08-19T03:29:14.855Z,-82
2016-08-19T03:30:14.907Z,-82
2016-08-19T03:31:15.669Z,-82
2016-08-19T03:32:15.438Z,-82
2016-08-19T03:33:15.345Z,-82
2016-08-19T03:34:14.646Z,-82
2016-08-19T03:35:14.901Z,-83
2016-08-19T03:36:14.641Z,-82
2016-08-19T03:37:15.296Z,-82
2016-08-19T03:38:14.820Z,-82
2016-08-19T03:39:14.990Z,-82
2016-08-19T03:40:15.247Z,-82
2016-08-19T03:41:14.846Z,-82
2016-08-19T03:42:15.048Z,-82
2016-08-19T03:43:15.251Z,-82
2016-08-19T03:44:15.462Z,-82
2016-08-19T03:45:14.813Z,-82
2016-08-19T03:46:15.477Z,-82
2016-08-19T03:47:14.909Z,-82
2016-08-19T03:48:14.594Z,-82
2016-08-19T03:49:15.862Z,-83
2016-08-19T03:50:15.426Z,-82
2016-08-19T03:51:15.326Z,-82
2016-08-19T03:52:14.872Z,-83
2016-08-19T03:53:16.002Z,-83
2016-08-19T03:54:14.700Z,-83
2016-08-19T03:55:15.064Z,-82
2016-08-19T03:56:14.888Z,-83
2016-08-19T03:57:14.978Z,-82
2016-08-19T03:58:15.619Z,-83
2016-08-19T03:59:14.649Z,-82
2016-08-19T04:00:14.927Z,-82
2016-08-19T04:01:14.997Z,-82
2016-08-19T04:02:14.980Z,-82
2016-08-19T04:03:15.721Z,-82
2016-08-19T04:04:14.633Z,-82
2016-08-19T04:05:16.584Z,-82
2016-08-19T04:06:14.903Z,-82
2016-08-19T04:07:14.776Z,-82
2016-08-19T04:08:15.388Z,-82
2016-08-19T04:09:14.805Z,-82
2016-08-19T04:10:14.977Z,-82
2016-08-19T04:11:14.929Z,-83
2016-08-19T04:12:14.899Z,-82
2016-08-19T04:13:15.460Z,-82
2016-08-19T04:14:14.944Z,-82
2016-08-19T04:15:14.991Z,-82
2016-08-19T04:16:14.830Z,-82
2016-08-19T04:17:15.033Z,-82
2016-08-19T04:18:14.837Z,-82
2016-08-19T04:19:15.037Z,-82
2016-08-19T04:20:14.728Z,-82
2016-08-19T04:21:16.348Z,-82
2016-08-19T04:22:14.806Z,-82
2016-08-19T04:23:15.046Z,-82
2016-08-19T04:24:14.907Z,-83
2016-08-19T04:25:14.962Z,-82
2016-08-19T04:26:15.125Z,-82
2016-08-19T04:27:15.124Z,-83
2016-08-19T04:28:15.619Z,-82
2016-08-19T04:29:14.803Z,-82
2016-08-19T04:30:14.965Z,-82
2016-08-19T04:31:14.667Z,-82
2016-08-19T04:32:15.966Z,-82
2016-08-19T04:33:15.501Z,-82
2016-08-19T04:34:15.545Z,-82
2016-08-19T04:35:15.045Z,-82
2016-08-19T04:36:14.881Z,-82
2016-08-19T04:37:14.850Z,-82
2016-08-19T04:38:15.066Z,-83
2016-08-19T04:39:14.746Z,-82
2016-08-19T04:40:14.666Z,-82
2016-08-19T04:41:14.730Z,-82
2016-08-19T04:42:14.658Z,-82
2016-08-19T04:43:14.596Z,-82
2016-08-19T04:44:14.506Z,-82
2016-08-19T04:45:14.574Z,-82
2016-08-19T04:46:14.882Z,-82
2016-08-19T04:47:14.542Z,-82
2016-08-19T04:48:14.593Z,-82
2016-08-19T04:49:14.655Z,-82
2016-08-19T04:50:14.677Z,-82
2016-08-19T04:51:14.597Z,-82
2016-08-19T04:52:14.723Z,-84
2016-08-19T04:53:14.920Z,-85
2016-08-19T04:54:14.714Z,-85
2016-08-19T04:55:14.545Z,-85
2016-08-19T04:56:14.640Z,-86
2016-08-19T04:57:14.640Z,-85
2016-08-19T04:58:14.713Z,-85
2016-08-19T04:59:14.628Z,-85
2016-08-19T05:00:14.882Z,-86
2016-08-19T05:01:14.652Z,-85
2016-08-19T05:02:14.769Z,-86
2016-08-19T05:03:14.661Z,-85
2016-08-19T05:04:14.883Z,-85
2016-08-19T05:05:14.656Z,-86
2016-08-19T05:06:14.661Z,-86
2016-08-19T05:07:14.664Z,-86
2016-08-19T05:08:14.813Z,-86
2016-08-19T05:09:14.744Z,-86
2016-08-19T05:10:14.656Z,-85
2016-08-19T05:11:14.926Z,-86
2016-08-19T05:12:14.671Z,-86
2016-08-19T05:13:14.825Z,-86
2016-08-19T05:14:14.598Z,-85
2016-08-19T05:15:14.845Z,-86
2016-08-19T05:16:14.693Z,-86
2016-08-19T05:17:14.744Z,-85
2016-08-19T05:18:14.988Z,-85
2016-08-19T05:19:14.696Z,-86
2016-08-19T05:20:14.683Z,-86
2016-08-19T05:21:14.709Z,-85
2016-08-19T05:22:14.709Z,-86
2016-08-19T05:23:14.770Z,-86
2016-08-19T05:24:14.637Z,-86
2016-08-19T05:25:14.858Z,-86
2016-08-19T05:26:14.779Z,-85
2016-08-19T05:27:14.722Z,-85
2016-08-19T05:28:14.828Z,-85
2016-08-19T05:29:14.744Z,-85
2016-08-19T05:30:14.893Z,-86
2016-08-19T05:31:14.664Z,-85
2016-08-19T05:32:14.718Z,-85
2016-08-19T05:33:14.798Z,-85
2016-08-19T05:34:14.822Z,-86
2016-08-19T05:35:14.870Z,-85
2016-08-19T05:36:14.800Z,-85
2016-08-19T05:37:14.840Z,-85
2016-08-19T05:38:14.674Z,-85
2016-08-19T05:39:15.122Z,-85
2016-08-19T05:40:14.843Z,-85
2016-08-19T05:41:14.848Z,-85
2016-08-19T05:42:14.837Z,-85
2016-08-19T05:43:15.686Z,-85
2016-08-19T05:44:14.843Z,-85
2016-08-19T05:45:14.699Z,-85
2016-08-19T05:46:14.781Z,-86
2016-08-19T05:47:14.738Z,-85
2016-08-19T05:48:14.881Z,-85
2016-08-19T05:49:14.793Z,-85
2016-08-19T05:50:14.897Z,-85
2016-08-19T05:51:14.786Z,-85
2016-08-19T05:52:14.889Z,-85
2016-08-19T05:53:14.904Z,-86
2016-08-19T05:54:14.797Z,-85
2016-08-19T05:55:14.878Z,-85
2016-08-19T05:56:14.931Z,-85
2016-08-19T05:57:14.821Z,-85
2016-08-19T05:58:14.736Z,-86
2016-08-19T05:59:14.919Z,-86
2016-08-19T06:00:14.969Z,-86
2016-08-19T06:01:14.810Z,-85
2016-08-19T06:02:14.941Z,-86
2016-08-19T06:03:14.858Z,-85
2016-08-19T06:04:14.913Z,-86
2016-08-19T06:05:14.860Z,-85
2016-08-19T06:06:15.621Z,-86
2016-08-19T06:07:14.828Z,-86
2016-08-19T06:08:14.777Z,-86
2016-08-19T06:09:14.751Z,-86
2016-08-19T06:10:14.922Z,-86
2016-08-19T06:11:14.988Z,-86
2016-08-19T06:12:14.830Z,-86
2016-08-19T06:13:14.996Z,-85
2016-08-19T06:14:14.923Z,-85
2016-08-19T06:15:14.995Z,-86
2016-08-19T06:16:14.865Z,-85
2016-08-19T06:17:14.924Z,-85
2016-08-19T06:18:14.943Z,-86
2016-08-19T06:19:14.927Z,-86
2016-08-19T06:20:14.942Z,-86
2016-08-19T06:21:14.786Z,-85
2016-08-19T06:22:15.369Z,-86
2016-08-19T06:23:14.859Z,-87
2016-08-19T06:24:14.978Z,-86
2016-08-19T06:25:14.810Z,-85
2016-08-19T06:26:14.813Z,-85
2016-08-19T06:27:14.986Z,-86
2016-08-19T06:28:14.893Z,-85
2016-08-19T06:29:15.047Z,-86
2016-08-19T06:30:14.810Z,-86
2016-08-19T06:31:14.941Z,-86
2016-08-19T06:32:14.989Z,-87
2016-08-19T06:33:15.078Z,-85
2016-08-19T06:34:14.936Z,-86
2016-08-19T06:35:14.977Z,-86
2016-08-19T06:36:15.095Z,-86
2016-08-19T06:37:14.926Z,-86
2016-08-19T06:38:16.121Z,-85
2016-08-19T06:39:15.007Z,-86
2016-08-19T06:40:14.841Z,-85
2016-08-19T06:41:14.935Z,-85
2016-08-19T06:42:15.015Z,-86
2016-08-19T06:43:14.862Z,-86
2016-08-19T06:44:14.946Z,-85
2016-08-19T06:45:14.942Z,-86
2016-08-19T06:46:14.944Z,-86
2016-08-19T06:47:15.039Z,-86
2016-08-19T06:48:14.957Z,-86
2016-08-19T06:49:15.112Z,-86
2016-08-19T06:50:15.105Z,-86
2016-08-19T06:51:14.953Z,-86
2016-08-19T06:52:15.118Z,-86
2016-08-19T06:53:14.956Z,-85
2016-08-19T06:54:15.690Z,-85
2016-08-19T06:55:14.970Z,-85
2016-08-19T06:56:15.046Z,-83
2016-08-19T06:57:15.004Z,-81
2016-08-19T06:58:15.055Z,-81
2016-08-19T06:59:14.966Z,-82
2016-08-19T07:00:15.076Z,-83
2016-08-19T07:01:15.726Z,-82
2016-08-19T07:02:14.931Z,-82
2016-08-19T07:03:15.191Z,-82
2016-08-19T07:04:15.073Z,-82
2016-08-19T07:05:14.947Z,-83
2016-08-19T07:06:15.031Z,-82
2016-08-19T07:07:15.029Z,-82
2016-08-19T07:08:15.069Z,-88
2016-08-19T07:09:15.010Z,-89
2016-08-19T07:10:15.667Z,-88
2016-08-19T07:11:14.935Z,-89
2016-08-19T07:12:14.943Z,-88
2016-08-19T07:13:15.027Z,-89
2016-08-19T07:14:15.098Z,-89
2016-08-19T07:15:15.024Z,-88
2016-08-19T07:16:15.037Z,-89
2016-08-19T07:17:15.114Z,-88
2016-08-19T07:18:15.254Z,-88
2016-08-19T07:19:15.026Z,-87
2016-08-19T07:20:15.215Z,-88
2016-08-19T07:21:15.783Z,-87
2016-08-19T07:22:14.958Z,-87
2016-08-19T07:23:15.136Z,-87
2016-08-19T07:24:15.124Z,-87
2016-08-19T07:25:15.155Z,-87
2016-08-19T07:26:16.288Z,-87
2016-08-19T07:27:15.169Z,-86
2016-08-19T07:28:15.215Z,-87
2016-08-19T07:29:14.982Z,-89
2016-08-19T07:30:15.060Z,-90
2016-08-19T07:31:15.028Z,-89
2016-08-19T07:32:15.104Z,-88
2016-08-19T07:33:15.269Z,-88
2016-08-19T07:34:15.152Z,-89
2016-08-19T07:35:15.229Z,-89
2016-08-19T07:36:15.109Z,-87
2016-08-19T07:37:15.109Z,-87
2016-08-19T07:38:15.169Z,-87
2016-08-19T07:39:15.115Z,-87
2016-08-19T07:40:15.109Z,-87
2016-08-19T07:41:15.026Z,-87
2016-08-19T07:42:16.112Z,-87
2016-08-19T07:43:15.270Z,-87
2016-08-19T07:44:15.199Z,-88
2016-08-19T07:45:15.280Z,-87
2016-08-19T07:46:15.248Z,-89
2016-08-19T07:47:15.212Z,-88
2016-08-19T07:48:15.267Z,-86
2016-08-19T07:49:15.314Z,-86
2016-08-19T07:50:15.473Z,-87
2016-08-19T07:51:15.402Z,-88
2016-08-19T07:52:15.419Z,-89
2016-08-19T07:53:15.378Z,-88
2016-08-19T07:54:15.153Z,-85
2016-08-19T07:55:15.195Z,-87
2016-08-19T07:56:15.970Z,-88
2016-08-19T07:57:15.380Z,-87
2016-08-19T07:58:15.837Z,-88
2016-08-19T07:59:15.115Z,-88
2016-08-19T08:00:15.502Z,-86
2016-08-19T08:01:15.222Z,-87
2016-08-19T08:02:15.175Z,-88
2016-08-19T08:03:15.192Z,-88
2016-08-19T08:04:15.174Z,-87
2016-08-19T08:05:15.164Z,-87
2016-08-19T08:06:15.117Z,-88
2016-08-19T08:07:15.271Z,-87
2016-08-19T08:08:15.196Z,-89
2016-08-19T08:09:15.282Z,-86
2016-08-19T08:10:15.192Z,-86
2016-08-19T08:11:15.275Z,-86
2016-08-19T08:12:15.362Z,-86
2016-08-19T08:13:15.225Z,-88
2016-08-19T08:14:16.184Z,-85
2016-08-19T08:15:15.209Z,-84
2016-08-19T08:16:15.441Z,-84
2016-08-19T08:17:15.214Z,-84
2016-08-19T08:18:15.302Z,-82
2016-08-19T08:19:15.238Z,-83
2016-08-19T08:20:15.305Z,-82
2016-08-19T08:21:15.264Z,-82
2016-08-19T08:22:15.372Z,-84
2016-08-19T08:23:15.204Z,-84
2016-08-19T08:24:15.312Z,-85
2016-08-19T08:25:15.350Z,-85
2016-08-19T08:26:15.371Z,-84
2016-08-19T08:27:15.621Z,-83
2016-08-19T08:28:15.301Z,-83
2016-08-19T08:29:15.380Z,-84
2016-08-19T08:30:15.845Z,-82
2016-08-19T08:31:15.350Z,-84
2016-08-19T08:32:15.277Z,-82
2016-08-19T08:33:15.642Z,-83
2016-08-19T08:34:15.332Z,-81
2016-08-19T08:35:15.257Z,-82
2016-08-19T08:36:15.275Z,-82
2016-08-19T08:37:15.259Z,-84
2016-08-19T08:38:15.292Z,-83
2016-08-19T08:39:15.418Z,-83
2016-08-19T08:40:15.545Z,-83
2016-08-19T08:41:15.339Z,-84
2016-08-19T08:42:15.378Z,-84
2016-08-19T08:43:15.430Z,-81
2016-08-19T08:44:15.279Z,-85
2016-08-19T08:45:15.307Z,-83
2016-08-19T08:46:15.692Z,-82
2016-08-19T08:47:16.349Z,-83
2016-08-19T08:48:16.376Z,-82
2016-08-19T08:49:16.047Z,-82
2016-08-19T08:50:15.990Z,-82
2016-08-19T08:51:39.394Z,-82
2016-08-19T08:52:16.028Z,-85
2016-08-19T08:53:15.830Z,-84
2016-08-19T08:54:15.383Z,-82
2016-08-19T08:55:15.383Z,-82
2016-08-19T08:56:15.269Z,-84
2016-08-19T08:57:15.515Z,-83
2016-08-19T08:58:15.608Z,-84
2016-08-19T08:59:15.389Z,-85
2016-08-19T09:00:15.342Z,-81
2016-08-19T09:01:15.344Z,-82
2016-08-19T09:02:16.340Z,-82
2016-08-19T09:03:15.337Z,-84
2016-08-19T09:04:15.277Z,-83
2016-08-19T09:05:15.780Z,-83
2016-08-19T09:06:15.356Z,-83
2016-08-19T09:07:15.404Z,-82
2016-08-19T09:08:15.457Z,-81
2016-08-19T09:09:15.433Z,-83
2016-08-19T09:10:15.286Z,-83
2016-08-19T09:11:15.364Z,-82
2016-08-19T09:12:15.576Z,-81
2016-08-19T09:13:15.368Z,-82
2016-08-19T09:14:15.322Z,-82
2016-08-19T09:15:15.301Z,-84
2016-08-19T09:16:15.505Z,-83
2016-08-19T09:17:15.515Z,-82
2016-08-19T09:18:15.989Z,-82
2016-08-19T09:19:15.792Z,-82
2016-08-19T09:20:15.596Z,-82
2016-08-19T09:21:15.854Z,-82
2016-08-19T09:22:15.574Z,-81
2016-08-19T09:23:15.488Z,-82
2016-08-19T09:24:15.610Z,-81
2016-08-19T09:25:15.414Z,-81
2016-08-19T09:26:15.655Z,-82
2016-08-19T09:27:15.666Z,-82
2016-08-19T09:28:15.459Z,-82
2016-08-19T09:29:15.531Z,-81
2016-08-19T09:30:15.719Z,-81
2016-08-19T09:31:15.511Z,-82
2016-08-19T09:32:15.603Z,-81
2016-08-19T09:33:15.702Z,-81
2016-08-19T09:34:15.539Z,-81
2016-08-19T09:35:15.496Z,-82
2016-08-19T09:36:15.623Z,-80
2016-08-19T09:37:17.297Z,-81
2016-08-19T09:38:15.726Z,-81
2016-08-19T09:39:15.607Z,-81
2016-08-19T09:40:15.509Z,-81
2016-08-19T09:41:15.550Z,-81
2016-08-19T09:42:15.584Z,-82
2016-08-19T09:43:15.520Z,-80
2016-08-19T09:44:15.598Z,-81
2016-08-19T09:45:15.589Z,-80
2016-08-19T09:46:15.570Z,-80
2016-08-19T09:47:15.444Z,-81
2016-08-19T09:48:15.654Z,-81
2016-08-19T09:49:15.635Z,-81
2016-08-19T09:50:16.093Z,-81
2016-08-19T09:51:15.739Z,-80
2016-08-19T09:52:15.506Z,-82
2016-08-19T09:53:15.818Z,-82
2016-08-19T09:54:15.590Z,-82
2016-08-19T09:55:15.564Z,-82
2016-08-19T09:56:15.661Z,-81
2016-08-19T09:57:16.252Z,-83
2016-08-19T09:58:15.645Z,-82
2016-08-19T09:59:16.636Z,-80
2016-08-19T10:00:16.538Z,-81
2016-08-19T10:01:15.611Z,-81
2016-08-19T10:02:15.537Z,-80
2016-08-19T10:03:15.792Z,-82
2016-08-19T10:04:15.630Z,-82
2016-08-19T10:05:15.957Z,-81
2016-08-19T10:06:15.662Z,-80
2016-08-19T10:07:15.638Z,-81
2016-08-19T10:08:15.841Z,-81
2016-08-19T10:09:15.653Z,-82
2016-08-19T10:10:15.627Z,-82
2016-08-19T10:11:15.686Z,-82
2016-08-19T10:12:16.553Z,-82
2016-08-19T10:13:15.703Z,-82
2016-08-19T10:14:16.674Z,-81
2016-08-19T10:15:15.714Z,-82
2016-08-19T10:16:15.662Z,-80
2016-08-19T10:17:15.684Z,-80
2016-08-19T10:18:15.637Z,-80
2016-08-19T10:19:15.985Z,-81
2016-08-19T10:20:15.538Z,-81
2016-08-19T10:21:15.538Z,-81
2016-08-19T10:22:15.700Z,-81
2016-08-19T10:23:15.630Z,-82
2016-08-19T10:24:15.626Z,-81
2016-08-19T10:25:15.618Z,-81
2016-08-19T10:26:16.672Z,-82
2016-08-19T10:27:15.881Z,-81
2016-08-19T10:28:15.655Z,-82
2016-08-19T10:29:15.873Z,-80
2016-08-19T10:30:16.262Z,-79
2016-08-19T10:31:15.832Z,-81
2016-08-19T10:32:15.944Z,-80
2016-08-19T10:33:17.098Z,-80
2016-08-19T10:34:15.749Z,-80
2016-08-19T10:35:15.748Z,-86
2016-08-19T10:36:16.522Z,-89
2016-08-19T10:37:15.827Z,-87
2016-08-19T10:38:15.804Z,-86
2016-08-19T10:39:16.684Z,-88
2016-08-19T10:40:16.188Z,-88
2016-08-19T10:41:16.473Z,-86
2016-08-19T10:42:15.765Z,-85
2016-08-19T10:43:15.739Z,-86
2016-08-19T10:44:15.974Z,-85
2016-08-19T10:45:15.674Z,-85
2016-08-19T10:46:15.658Z,-86
2016-08-19T10:47:15.768Z,-85
2016-08-19T10:48:15.715Z,-87
2016-08-19T10:49:15.912Z,-87
2016-08-19T10:50:15.675Z,-84
2016-08-19T10:51:15.820Z,-85
2016-08-19T10:52:15.819Z,-84
2016-08-19T10:53:16.008Z,-85
2016-08-19T10:54:15.606Z,-86
2016-08-19T10:55:15.942Z,-85
2016-08-19T10:56:15.694Z,-85
2016-08-19T10:57:15.774Z,-84
2016-08-19T10:58:15.749Z,-84
2016-08-19T10:59:15.859Z,-83
2016-08-19T11:00:15.738Z,-84
2016-08-19T11:01:15.942Z,-85
2016-08-19T11:02:16.005Z,-85
2016-08-19T11:03:15.831Z,-85
2016-08-19T11:04:15.820Z,-87
2016-08-19T11:05:16.063Z,-87
2016-08-19T11:06:16.670Z,-85
2016-08-19T11:07:16.522Z,-84
2016-08-19T11:08:16.943Z,-84
2016-08-19T11:09:16.575Z,-85
2016-08-19T11:10:16.487Z,-84
2016-08-19T11:11:16.974Z,-84
2016-08-19T11:12:16.773Z,-85
2016-08-19T11:13:16.678Z,-84
2016-08-19T11:14:16.741Z,-84
2016-08-19T11:15:17.317Z,-84
2016-08-19T11:16:16.800Z,-84
2016-08-19T11:17:17.323Z,-84
2016-08-19T11:18:17.340Z,-85
2016-08-19T11:19:16.520Z,-85
2016-08-19T11:20:16.373Z,-85
2016-08-19T11:21:16.940Z,-85
2016-08-19T11:22:16.660Z,-85
2016-08-19T11:23:16.446Z,-84
2016-08-19T11:24:16.612Z,-84
2016-08-19T11:25:17.170Z,-85
2016-08-19T11:26:16.825Z,-85
2016-08-19T11:27:17.126Z,-85
2016-08-19T11:28:17.223Z,-84
2016-08-19T11:29:17.069Z,-84
2016-08-19T11:30:17.138Z,-84
2016-08-19T11:31:17.812Z,-85
2016-08-19T11:32:17.751Z,-85
2016-08-19T11:33:16.852Z,-83
2016-08-19T11:34:17.302Z,-84
2016-08-19T11:35:17.462Z,-85
2016-08-19T11:36:17.469Z,-84
2016-08-19T11:37:16.983Z,-84
2016-08-19T11:38:17.002Z,-85
2016-08-19T11:39:16.609Z,-84
2016-08-19T11:40:16.813Z,-85
2016-08-19T11:41:17.114Z,-85
2016-08-19T11:42:16.357Z,-84
2016-08-19T11:43:17.241Z,-85
2016-08-19T11:44:17.043Z,-85
2016-08-19T11:45:17.376Z,-85
2016-08-19T11:46:16.666Z,-85
2016-08-19T11:47:16.756Z,-85
2016-08-19T11:48:17.876Z,-87
2016-08-19T11:49:18.262Z,-86
2016-08-19T11:50:16.893Z,-85
2016-08-19T11:51:17.533Z,-85
2016-08-19T11:52:16.797Z,-85
2016-08-19T11:53:16.953Z,-85
2016-08-19T11:54:16.743Z,-85
2016-08-19T11:55:16.764Z,-85
2016-08-19T11:56:17.369Z,-86
2016-08-19T11:57:16.842Z,-85
2016-08-19T11:58:16.695Z,-85
2016-08-19T11:59:16.037Z,-88
2016-08-19T12:00:16.191Z,-86
2016-08-19T12:01:15.994Z,-89
2016-08-19T12:02:15.921Z,-85
2016-08-19T12:03:15.959Z,-88
2016-08-19T12:04:15.941Z,-84
2016-08-19T12:05:16.216Z,-86
2016-08-19T12:06:15.903Z,-86
2016-08-19T12:07:15.985Z,-84
2016-08-19T12:08:15.982Z,-84
2016-08-19T12:09:16.077Z,-85
2016-08-19T12:10:16.042Z,-85
2016-08-19T12:11:16.820Z,-85
2016-08-19T12:12:15.994Z,-86
2016-08-19T12:13:15.992Z,-86
2016-08-19T12:14:16.103Z,-86
2016-08-19T12:15:16.081Z,-85
2016-08-19T12:16:15.939Z,-85
2016-08-19T12:17:15.969Z,-84
2016-08-19T12:18:16.204Z,-85
2016-08-19T12:19:16.009Z,-85
2016-08-19T12:20:16.225Z,-83
2016-08-19T12:21:16.087Z,-84
2016-08-19T12:22:16.162Z,-86
2016-08-19T12:23:16.045Z,-86
2016-08-19T12:24:15.949Z,-85
2016-08-19T12:25:15.974Z,-85
2016-08-19T12:26:16.017Z,-84
2016-08-19T12:27:15.985Z,-83
2016-08-19T12:28:16.221Z,-84
2016-08-19T12:29:16.317Z,-85
2016-08-19T12:30:16.022Z,-85
2016-08-19T12:31:16.233Z,-86
2016-08-19T12:32:16.101Z,-84
2016-08-19T12:33:16.078Z,-86
2016-08-19T12:34:16.143Z,-85
2016-08-19T12:35:16.273Z,-86
2016-08-19T12:36:16.236Z,-85
2016-08-19T12:37:16.105Z,-85
2016-08-19T12:38:16.024Z,-85
2016-08-19T12:39:16.161Z,-87
2016-08-19T12:40:16.279Z,-85
2016-08-19T12:41:16.303Z,-86
2016-08-19T12:42:16.170Z,-85
2016-08-19T12:43:16.103Z,-86
2016-08-19T12:44:16.033Z,-86
2016-08-19T12:45:16.145Z,-85
2016-08-19T12:46:16.044Z,-84
2016-08-19T12:47:16.039Z,-86
2016-08-19T12:48:16.363Z,-88
2016-08-19T12:49:16.078Z,-87
2016-08-19T12:50:16.112Z,-87
2016-08-19T12:51:16.279Z,-87
2016-08-19T12:52:17.116Z,-85
2016-08-19T12:53:16.202Z,-87
2016-08-19T12:54:16.078Z,-88
2016-08-19T12:55:16.364Z,-88
2016-08-19T12:56:16.089Z,-89
2016-08-19T12:57:16.079Z,-89
2016-08-19T12:58:16.348Z,-86
2016-08-19T12:59:16.110Z,-85
2016-08-19T13:00:16.622Z,-85
2016-08-19T13:01:16.197Z,-85
2016-08-19T13:02:16.628Z,-86
2016-08-19T13:03:16.116Z,-85
2016-08-19T13:04:16.315Z,-85
2016-08-19T13:05:16.284Z,-86
2016-08-19T13:06:16.291Z,-85
2016-08-19T13:07:16.175Z,-84
2016-08-19T13:08:16.213Z,-85
2016-08-19T13:09:16.247Z,-85
2016-08-19T13:10:16.021Z,-85
2016-08-19T13:11:16.110Z,-85
2016-08-19T13:12:16.414Z,-84
2016-08-19T13:13:16.264Z,-84
2016-08-19T13:14:16.144Z,-84
2016-08-19T13:15:16.277Z,-84
2016-08-19T13:16:16.183Z,-84
2016-08-19T13:17:16.336Z,-84
2016-08-19T13:18:17.024Z,-84
2016-08-19T13:19:16.127Z,-84
2016-08-19T13:20:16.315Z,-84
2016-08-19T13:21:16.117Z,-84
2016-08-19T13:22:16.305Z,-84
2016-08-19T13:23:16.355Z,-84
2016-08-19T13:24:16.947Z,-84
2016-08-19T13:25:16.186Z,-84
2016-08-19T13:26:16.291Z,-83
2016-08-19T13:27:16.193Z,-84
2016-08-19T13:28:16.975Z,-84
2016-08-19T13:29:16.285Z,-83
2016-08-19T13:30:16.268Z,-84
2016-08-19T13:31:16.328Z,-85
2016-08-19T13:32:16.204Z,-84
2016-08-19T13:33:16.231Z,-84
2016-08-19T13:34:16.384Z,-84
2016-08-19T13:35:16.513Z,-84
2016-08-19T13:36:16.344Z,-84
2016-08-19T13:37:16.283Z,-85
2016-08-19T13:38:16.499Z,-85
2016-08-19T13:39:16.371Z,-85
2016-08-19T13:40:16.246Z,-84
2016-08-19T13:41:16.325Z,-84
2016-08-19T13:42:16.532Z,-84
2016-08-19T13:43:16.337Z,-84
2016-08-19T13:44:16.276Z,-85
2016-08-19T13:45:16.137Z,-84
2016-08-19T13:46:16.296Z,-84